Terminal Aerodrome Forecast
Issued by NWS Wakefield, VA

Home | Current Version | Previous Version | Text Only | Print | Product List | Glossary On
Versions: 1 2 3 4 5 6 7 8 9 10 11 12 13 14 15
929
FTUS41 KAKQ 222321 CCB
TAFSBY
TAF COR
KSBY 222321Z 2300/2324 19013KT P6SM SKC
     FM230800 22010KT P6SM SCT200
     FM231200 26006KT P6SM BKN100
     FM231500 30006KT P6SM BKN060
     FM231800 32006KT 6SM -SHRA OVC050=

USA.gov is the U.S. government's official web portal to all federal, state and local government web resources and services.